createdAt,value
2022-08-26T00:00:54.110Z,12.82
2022-08-26T00:03:22.743Z,11.18
2022-08-26T00:05:50.740Z,9.65
2022-08-26T00:08:19.828Z,11.13
2022-08-26T00:15:52.443Z,13.40
2022-08-26T00:18:23.057Z,11.93
2022-08-26T00:20:54.350Z,10.77
2022-08-26T00:23:24.253Z,13.68
2022-08-26T00:25:51.923Z,12.23
2022-08-26T00:28:19.673Z,12.57
2022-08-26T00:30:49.447Z,12.50
2022-08-26T00:36:01.177Z,18.40
2022-08-26T00:38:28.017Z,16.58
2022-08-26T00:40:57.132Z,13.15
2022-08-26T00:43:25.361Z,14.90
2022-08-26T00:46:13.040Z,14.00
2022-08-26T00:48:44.385Z,15.73
2022-08-26T00:51:16.605Z,16.35
2022-08-26T00:59:02.954Z,19.33
2022-08-26T01:01:31.835Z,12.30
2022-08-26T01:04:00.502Z,13.75
2022-08-26T01:06:30.699Z,15.50
2022-08-26T01:08:58.161Z,14.18
2022-08-26T01:11:26.607Z,17.92
2022-08-26T01:13:58.665Z,17.73
2022-08-26T01:21:27.141Z,10.98
2022-08-26T01:23:57.499Z,16.15
2022-08-26T01:26:32.824Z,13.48
2022-08-26T01:29:02.422Z,16.65
2022-08-26T01:31:37.297Z,14.80
2022-08-26T01:34:10.449Z,10.10
2022-08-26T01:36:39.382Z,9.45
2022-08-26T01:45:00.503Z,16.25
2022-08-26T01:47:30.349Z,16.00
2022-08-26T01:50:00.803Z,13.13
2022-08-26T01:52:32.857Z,19.08
2022-08-26T01:55:00.390Z,15.82
2022-08-26T01:57:28.622Z,10.18
2022-08-26T01:59:59.412Z,13.23
2022-08-26T02:07:21.551Z,13.18
2022-08-26T02:09:51.263Z,14.90
2022-08-26T02:12:22.262Z,15.93
2022-08-26T02:14:56.298Z,12.05
2022-08-26T02:17:40.272Z,13.75
2022-08-26T02:20:14.836Z,14.43
2022-08-26T02:37:58.423Z,13.52
2022-08-26T02:40:33.930Z,14.43
2022-08-26T02:43:03.045Z,12.88
2022-08-26T02:45:30.305Z,16.52
2022-08-26T02:47:58.025Z,13.68
2022-08-26T02:50:28.486Z,17.90
2022-08-26T02:52:55.280Z,15.98
2022-08-26T03:00:52.665Z,16.83
2022-08-26T03:03:23.490Z,11.60
2022-08-26T03:05:51.832Z,13.88
2022-08-26T03:08:19.070Z,11.32
2022-08-26T03:10:47.179Z,12.80
2022-08-26T03:13:17.349Z,13.63
2022-08-26T03:15:44.933Z,15.95
2022-08-26T03:23:20.614Z,16.02
2022-08-26T03:25:53.389Z,13.00
2022-08-26T03:28:20.824Z,13.10
2022-08-26T03:30:48.784Z,12.10
2022-08-26T03:33:16.019Z,15.68
2022-08-26T03:35:44.847Z,17.58
2022-08-26T03:38:12.489Z,15.18
2022-08-26T03:45:50.804Z,17.42
2022-08-26T03:48:18.360Z,18.35
2022-08-26T03:50:45.721Z,10.95
2022-08-26T03:55:43.215Z,19.58
2022-08-26T03:58:10.680Z,15.48
2022-08-26T04:00:37.887Z,20.95
2022-08-26T04:05:45.516Z,16.13
2022-08-26T04:08:13.631Z,16.27
2022-08-26T04:10:42.436Z,17.58
2022-08-26T04:13:13.363Z,17.48
2022-08-26T04:15:43.314Z,16.85
2022-08-26T04:18:18.330Z,16.65
2022-08-26T04:20:46.987Z,20.60
2022-08-26T04:25:55.475Z,19.25
2022-08-26T04:28:22.619Z,14.57
2022-08-26T04:30:49.404Z,17.38
2022-08-26T04:33:17.871Z,21.58
2022-08-26T04:36:03.309Z,20.67
2022-08-26T04:38:31.623Z,18.95
2022-08-26T04:40:58.612Z,19.13
2022-08-26T04:48:42.369Z,20.60
2022-08-26T04:51:09.878Z,19.13
2022-08-26T04:53:37.909Z,20.95
2022-08-26T04:56:05.535Z,19.13
2022-08-26T04:58:32.586Z,16.40
2022-08-26T05:01:00.099Z,21.83
2022-08-26T05:03:30.466Z,18.48
2022-08-26T05:11:05.756Z,21.17
2022-08-26T05:13:35.427Z,26.20
2022-08-26T05:16:04.713Z,36.45
2022-08-26T05:18:33.583Z,23.92
2022-08-26T05:21:02.007Z,26.38
2022-08-26T05:23:33.069Z,21.58
2022-08-26T05:26:00.654Z,24.77
2022-08-26T05:44:20.575Z,20.70
2022-08-26T05:46:49.232Z,21.80
2022-08-26T05:49:18.577Z,23.13
2022-08-26T05:51:48.026Z,18.27
2022-08-26T05:54:21.931Z,17.35
2022-08-26T05:56:51.104Z,20.05
2022-08-26T05:59:24.086Z,19.33
2022-08-26T06:27:55.596Z,19.00
2022-08-26T06:30:22.788Z,19.98
2022-08-26T06:32:52.505Z,18.85
2022-08-26T06:35:20.183Z,15.57
2022-08-26T06:37:48.540Z,15.20
2022-08-26T06:40:17.492Z,20.27
2022-08-26T06:42:44.399Z,20.65
2022-08-26T06:45:11.362Z,19.70
2022-08-26T06:52:41.605Z,20.02
2022-08-26T06:57:37.781Z,20.80
2022-08-26T07:00:10.498Z,16.17
2022-08-26T07:02:38.721Z,18.17
2022-08-26T07:05:07.364Z,18.98
2022-08-26T07:07:34.474Z,18.40
2022-08-26T07:14:36.447Z,16.60
2022-08-26T07:17:03.413Z,17.85
2022-08-26T07:19:31.743Z,15.13
2022-08-26T07:22:06.304Z,16.55
2022-08-26T07:27:08.940Z,15.20
2022-08-26T07:29:39.045Z,18.23
2022-08-26T07:35:05.741Z,14.10
2022-08-26T07:37:35.482Z,13.68
2022-08-26T07:40:07.810Z,13.70
2022-08-26T07:42:36.502Z,13.02
2022-08-26T07:45:04.468Z,14.45
2022-08-26T07:47:32.345Z,15.57
2022-08-26T07:49:59.641Z,13.10
2022-08-26T08:42:06.068Z,13.15
2022-08-26T08:44:37.495Z,9.48
2022-08-26T08:47:20.757Z,11.70
2022-08-26T08:49:47.857Z,9.95
2022-08-26T08:52:35.069Z,8.93
2022-08-26T08:59:38.418Z,10.68
2022-08-26T09:04:53.937Z,10.07
2022-08-26T09:07:47.122Z,9.18
2022-08-26T09:10:37.204Z,7.20
2022-08-26T09:13:16.851Z,7.75
2022-08-26T09:21:42.974Z,7.70
2022-08-26T09:26:48.198Z,7.13
2022-08-26T09:29:26.684Z,7.78
2022-08-26T09:32:18.759Z,8.20
2022-08-26T09:34:53.929Z,6.82
2022-08-26T09:42:25.456Z,8.70
2022-08-26T09:44:54.438Z,9.40
2022-08-26T09:47:26.211Z,6.90
2022-08-26T09:50:04.173Z,11.45
2022-08-26T09:52:36.200Z,8.48
2022-08-26T09:55:11.949Z,9.40
2022-08-26T09:57:51.158Z,7.95
2022-08-26T10:34:34.698Z,10.57
2022-08-26T10:37:16.285Z,13.30
2022-08-26T10:39:57.303Z,8.07
2022-08-26T10:43:09.928Z,10.52
2022-08-26T10:45:43.639Z,12.43
2022-08-26T10:48:24.182Z,12.52
2022-08-26T10:51:10.131Z,13.32
2022-08-26T10:57:09.778Z,15.82
2022-08-26T11:00:39.835Z,14.68
2022-08-26T11:03:38.672Z,14.57
2022-08-26T11:06:55.382Z,16.80
2022-08-26T11:10:15.842Z,15.85
2022-08-26T11:12:44.934Z,14.50
2022-08-26T11:31:31.884Z,12.65
2022-08-26T11:34:06.791Z,17.23
2022-08-26T11:36:48.842Z,15.07
2022-08-26T11:39:54.442Z,15.32
2022-08-26T11:42:35.159Z,12.85
2022-08-26T12:03:55.100Z,19.17
2022-08-26T12:06:32.285Z,15.73
2022-08-26T12:09:03.571Z,15.90
2022-08-26T12:11:40.184Z,18.92
2022-08-26T12:14:22.332Z,18.77
2022-08-26T12:16:54.773Z,16.85
2022-08-26T12:24:08.892Z,14.93
2022-08-26T12:26:37.692Z,20.42
2022-08-26T12:29:19.826Z,17.98
2022-08-26T12:31:47.514Z,16.73
2022-08-26T12:34:18.198Z,16.23
2022-08-26T12:36:56.036Z,18.88
2022-08-26T12:39:29.844Z,15.35
2022-08-26T12:57:47.052Z,15.10
2022-08-26T13:00:36.470Z,16.45
2022-08-26T13:03:04.143Z,16.27
2022-08-26T13:05:52.770Z,13.38
2022-08-26T13:08:27.838Z,13.43
2022-08-26T13:11:11.289Z,14.43
2022-08-26T15:33:02.021Z,25.10
2022-08-26T15:35:29.666Z,36.67
2022-08-26T15:37:59.877Z,26.48
2022-08-26T15:40:29.347Z,27.48
2022-08-26T15:45:43.771Z,26.88
2022-08-26T15:48:11.285Z,27.58
2022-08-26T16:08:14.377Z,31.05
2022-08-26T16:10:50.247Z,28.75
2022-08-26T16:13:21.832Z,32.83
2022-08-26T16:15:53.837Z,33.30
2022-08-26T16:18:24.227Z,32.00
2022-08-26T16:21:02.716Z,28.02
2022-08-26T16:28:12.960Z,24.90
2022-08-26T16:30:42.019Z,28.85
2022-08-26T16:33:09.366Z,32.67
2022-08-26T16:35:37.800Z,24.73
2022-08-26T16:38:04.728Z,24.05
2022-08-26T16:40:32.094Z,25.17
2022-08-26T16:42:59.576Z,24.65
2022-08-26T16:48:11.795Z,20.10
2022-08-26T16:50:43.474Z,22.77
2022-08-26T16:55:38.571Z,26.05
2022-08-26T16:58:05.654Z,25.38
2022-08-26T17:00:34.061Z,26.88
2022-08-26T17:03:01.670Z,27.25
2022-08-26T17:10:35.967Z,26.48
2022-08-26T17:13:03.333Z,28.30
2022-08-26T17:15:31.445Z,28.52
2022-08-26T17:17:58.538Z,22.80
2022-08-26T17:20:26.478Z,31.63
2022-08-26T17:22:56.954Z,25.42
2022-08-26T17:25:31.055Z,25.40
2022-08-26T17:33:22.023Z,23.65
2022-08-26T17:35:52.443Z,25.65
2022-08-26T17:38:20.545Z,27.88
2022-08-26T17:40:47.945Z,18.70
2022-08-26T17:43:14.937Z,31.73
2022-08-26T17:45:43.407Z,27.13
2022-08-26T17:48:10.713Z,28.65
2022-08-26T17:55:47.504Z,25.25
2022-08-26T17:58:18.057Z,24.13
2022-08-26T18:00:49.058Z,27.98
2022-08-26T18:03:16.601Z,27.52
2022-08-26T18:05:47.277Z,26.77
2022-08-26T18:08:15.008Z,27.20
2022-08-26T18:10:45.187Z,26.77
2022-08-26T18:17:31.420Z,25.65
2022-08-26T18:20:02.053Z,30.55
2022-08-26T18:22:32.013Z,27.20
2022-08-26T18:25:00.585Z,26.88
2022-08-26T18:27:27.663Z,29.80
2022-08-26T18:29:55.693Z,27.80
2022-08-26T18:32:22.674Z,28.23
2022-08-26T18:37:31.414Z,35.78
2022-08-26T18:39:59.231Z,31.95
2022-08-26T18:42:26.696Z,32.13
2022-08-26T18:44:54.881Z,31.10
2022-08-26T18:47:22.273Z,33.55
2022-08-26T18:49:49.471Z,33.40
2022-08-26T18:52:17.018Z,30.15
2022-08-26T19:00:11.175Z,26.48
2022-08-26T19:02:38.102Z,32.63
2022-08-26T19:05:07.384Z,29.83
2022-08-26T19:07:38.999Z,29.45
2022-08-26T19:10:07.513Z,34.35
2022-08-26T19:12:36.105Z,27.77
2022-08-26T19:15:03.794Z,37.92
2022-08-26T19:22:36.993Z,26.30
2022-08-26T19:25:05.064Z,32.83
2022-08-26T19:27:33.014Z,27.63
2022-08-26T19:30:00.613Z,29.80
2022-08-26T19:32:28.094Z,27.85
2022-08-26T19:34:54.961Z,32.20
2022-08-26T19:37:22.493Z,25.73
2022-08-26T19:45:20.195Z,30.35
2022-08-26T19:47:53.183Z,32.78
2022-08-26T19:50:21.064Z,31.15
2022-08-26T19:52:48.369Z,29.35
2022-08-26T19:55:16.927Z,30.85
2022-08-26T19:57:44.127Z,28.15
2022-08-26T20:00:15.324Z,30.92
2022-08-26T20:07:52.758Z,33.92
2022-08-26T20:10:24.411Z,30.90
2022-08-26T20:12:54.413Z,30.95
2022-08-26T20:15:24.834Z,33.47
2022-08-26T20:17:58.731Z,33.25
2022-08-26T20:20:46.109Z,29.48
2022-08-26T20:27:51.979Z,31.48
2022-08-26T20:30:19.128Z,34.90
2022-08-26T20:32:46.341Z,33.42
2022-08-26T20:35:14.126Z,36.85
2022-08-26T20:37:42.613Z,33.10
2022-08-26T20:40:11.600Z,31.58
2022-08-26T20:42:38.679Z,35.90
2022-08-26T20:50:14.059Z,31.33
2022-08-26T20:52:41.640Z,27.65
2022-08-26T20:55:09.158Z,35.42
2022-08-26T20:57:38.161Z,35.63
2022-08-26T21:00:07.392Z,34.67
2022-08-26T21:02:34.402Z,30.63
2022-08-26T21:05:01.625Z,28.90
2022-08-26T21:12:40.791Z,31.67
2022-08-26T21:15:08.779Z,32.50
2022-08-26T21:17:35.416Z,33.53
2022-08-26T21:20:03.229Z,36.03
2022-08-26T21:22:30.272Z,32.45
2022-08-26T21:24:57.406Z,30.88
2022-08-26T21:27:26.407Z,36.45
2022-08-26T21:47:37.851Z,36.53
2022-08-26T21:50:05.989Z,41.67
2022-08-26T21:52:32.801Z,43.08
2022-08-26T21:55:01.549Z,36.45
2022-08-26T21:57:29.588Z,44.97
2022-08-26T21:59:56.680Z,36.03
2022-08-26T22:02:24.715Z,36.53
2022-08-26T22:25:29.267Z,43.33
2022-08-26T22:27:55.894Z,35.38
2022-08-26T22:30:23.682Z,35.92
2022-08-26T22:32:50.630Z,38.90
2022-08-26T22:35:28.699Z,42.15
2022-08-26T22:37:57.739Z,45.38
2022-08-26T22:40:24.839Z,44.53
2022-08-26T22:56:08.217Z,50.92
2022-08-26T22:58:36.344Z,50.55
2022-08-26T23:01:04.736Z,43.85
2022-08-26T23:03:32.147Z,39.22
2022-08-26T23:06:00.113Z,46.22
2022-08-26T23:08:27.294Z,32.20
2022-08-26T23:10:54.206Z,39.63
2022-08-26T23:18:28.157Z,44.72
2022-08-26T23:20:55.357Z,35.00
2022-08-26T23:23:23.208Z,32.58
2022-08-26T23:25:50.115Z,36.53
2022-08-26T23:28:17.554Z,32.00
2022-08-26T23:30:44.191Z,29.70
2022-08-26T23:33:11.187Z,28.10
2022-08-26T23:38:17.977Z,33.50
2022-08-26T23:40:47.427Z,33.47
2022-08-26T23:43:15.849Z,31.85
2022-08-26T23:45:43.311Z,30.50
2022-08-26T23:48:10.327Z,32.45
2022-08-26T23:50:55.984Z,34.70
2022-08-26T23:53:22.960Z,37.75
